Flight Track Log - Related Links

Times and Time Zones

All times are in EDT time to prevent confusion due to time zone crossing. See the CTL13 flight status page for this flight to view local times or setup timezone preferences in your user account.

Time Position Orientation Groundspeed Altitude Reporting Facility
EDT Latitude Longitude Course Direction KTS MPH feet Rate Location/Type
Thu 10:27:47 PM 41.8000 -87.7333 93° East 150 173 1,700  Level Chicago TRACON
Thu 10:28:54 PM 41.7833 -87.6833 114° Southeast 156 180 2,900 1,181 Climbing Chicago TRACON
Thu 10:29:54 PM 41.7833 -87.6333 90° East 152 175 4,200 1,263 Climbing Chicago TRACON
Thu 10:30:10 PM 41.7739 -87.6125 121° Southeast 153 176 4,500 538 Climbing Chicago Center
Thu 10:31:12 PM 41.7750 -87.5547 89° East 161 185 4,900 341 Climbing Chicago Center
Thu 10:32:13 PM 41.7792 -87.4858 85° East 178 205 5,200 390 Climbing Chicago Center
Thu 10:33:00 PM 41.7794 -87.3780 93° East  Level FlightAware Approximate
Thu 10:33:15 PM 41.7828 -87.4186 86° East 182 209 5,700  Level Chicago Center
Thu 10:34:16 PM 41.7867 -87.3539 85° East 177 204 6,100 585 Climbing Chicago Center
Thu 10:35:18 PM 41.7864 -87.2944 90° East 163 188 6,900 390 Climbing Chicago Center
Thu 10:36:19 PM 41.7856 -87.2167 91° East 175 201 6,900  Level Chicago Center
Thu 10:37:22 PM 41.7833 -87.1475 92° East 186 214 6,900  Level Chicago Center
Thu 10:38:22 PM 41.7814 -87.0808 92° East 182 209 6,900 50 Level Chicago Center
Thu 10:39:23 PM 41.7986 -87.0272 67° East 173 199 7,000 98 Climbing Chicago Center
Thu 10:40:25 PM 41.8322 -86.9839 44° Northeast 166 191 7,100  Climbing Chicago Center
Thu 10:41:26 PM 41.8647 -86.9394 46° Northeast 169 194 7,000 -49 Descending Chicago Center
Thu 10:42:27 PM 41.8972 -86.8939 46° Northeast 169 194 7,000  Level Chicago Center
Thu 10:43:29 PM 41.9303 -86.8489 45° Northeast 170 196 7,000  Level Chicago Center
Thu 10:44:30 PM 41.9708 -86.7944 45° Northeast 173 199 7,000  Level Chicago Center
Thu 10:45:31 PM 42.0017 -86.7453 50° Northeast 173 199 7,000  Level Chicago Center
Thu 10:46:33 PM 42.0358 -86.7011 44° Northeast 171 197 7,000  Level Chicago Center
Thu 10:47:34 PM 42.0678 -86.6558 46° Northeast 171 197 7,000  Level Chicago Center
Thu 10:48:35 PM 42.1006 -86.6092 47° Northeast 173 199 7,000  Level Chicago Center
Thu 10:49:37 PM 42.1339 -86.5617 47° Northeast 173 199 7,000  Level Chicago Center
Thu 10:50:38 PM 42.1667 -86.5150 47° Northeast 173 199 7,000  Level Chicago Center
Thu 10:51:39 PM 42.2000 -86.4683 46° Northeast 173 199 7,000  Level Chicago Center
Thu 10:52:41 PM 42.2400 -86.4125 46° Northeast 173 199 7,000  Level Chicago Center
Thu 10:53:42 PM 42.2733 -86.3672 45° Northeast 171 197 7,000  Level Chicago Center
Thu 10:54:43 PM 42.3042 -86.3244 46° Northeast 171 197 7,000  Level Chicago Center
Thu 10:55:45 PM 42.3394 -86.2794 43° Northeast 173 199 7,000  Level Chicago Center
Thu 10:56:46 PM 42.3733 -86.2336 45° Northeast 173 199 7,000  Level Chicago Center
Thu 10:57:47 PM 42.4086 -86.1867 44° Northeast 175 201 7,000  Level Chicago Center
Thu 10:58:49 PM 42.4522 -86.1281 45° Northeast 183 211 7,000  Level Chicago Center
Thu 10:59:51 PM 42.4858 -86.0794 47° Northeast 180 207 7,000  Level Chicago Center
Thu 11:00:52 PM 42.5197 -86.0289 48° Northeast 181 208 7,000  Level Chicago Center
Thu 11:01:54 PM 42.5550 -85.9794 46° Northeast 182 209 7,000 -488 Level Chicago Center
Thu 11:02:55 PM 42.5914 -85.9244 48° Northeast 191 220 6,000 -885 Descending Chicago Center
Thu 11:03:56 PM 42.6311 -85.8678 46° Northeast 203 234 5,200 -787 Descending Chicago Center
Thu 11:04:57 PM 42.6697 -85.8153 45° Northeast 200 230 4,400 -836 Descending Chicago Center
Thu 11:05:58 PM 42.7081 -85.7642 44° Northeast 196 226 3,500 -829 Descending Chicago Center
Thu 11:07:00 PM 42.7539 -85.7047 44° Northeast 192 221 2,700 -439 Descending Chicago Center
Thu 11:08:01 PM 42.7892 -85.6550 46° Northeast 188 216 2,600 -246 Descending Chicago Center
Thu 11:09:02 PM 42.8253 -85.6189 36° Northeast 176 203 2,200 -393 Descending Chicago Center
Thu 11:10:03 PM 42.8617 -85.5847 35° Northeast 167 192 1,800 -639 Descending Chicago Center
Thu 11:11:04 PM 42.8764 -85.5447 63° Northeast 140 161 900 -885 Descending Chicago Center
Thu 11:13:00 PM 42.8667 -85.5167 56° Northeast  Level FlightAware Approximate

Login

Don't have an account? Register now (free) for customized features, flight alerts, and more!